OMSJ

Sharjah International Airport

Airport
ICAO code
OMSJ
IATA Code
SHJ
Summary
ICAO Region
MID
ICAO Territory
Location

Sharjah,

Serving
Sharjah
Elevation
111 ft
Coordinates
25° 19' 45" N , 55° 30' 58" E
KCC
Metar
Observation
OMSJ 301400Z 29008KT CAVOK 28/20 Q1016 NOSIG
Station
Sharjah International Airport
Date/Time
2022-11-30 14:00:00
Wind direction
290°
Wind speed
08 kts
Lowest cloud amount
clouds and visibility OK
Temperature
28°C
Dew point
20°C
Humidity
61%
QNH
1016 hPa
Weather condition
n/a

Description

International airport serving the emirate of Sharjah.

Climatology

Hot Desert Climate (Köppen climate classification BWh) - Hot desert climates are typically found in the subtropics where there is unbroken sunshine for the whole year due to the stable descending air and high pressure, little or no precipitation. Maximum temperatures of 40°C to 45°C are not uncommon, particularly during the warmer months of the year.

Runways

Designator Length Width Surface Rops
12/30 4060 45 ASP Yes/Yes

SKYbrary Partners:

Safety knowledge contributed by: